sensor_id;sensor_type;location;lat;lon;timestamp;P1;durP1;ratioP1;P2;durP2;ratioP2
75261;SDS011;63859;51.064;4.580;2023-08-21T00:01:44;10.43;;;2.70;;
75261;SDS011;63859;51.064;4.580;2023-08-21T00:04:10;4.88;;;2.25;;
75261;SDS011;63859;51.064;4.580;2023-08-21T00:06:36;10.10;;;2.85;;
75261;SDS011;63859;51.064;4.580;2023-08-21T00:09:01;5.97;;;2.35;;
75261;SDS011;63859;51.064;4.580;2023-08-21T00:11:27;9.02;;;2.72;;
75261;SDS011;63859;51.064;4.580;2023-08-21T00:13:53;10.95;;;2.42;;
75261;SDS011;63859;51.064;4.580;2023-08-21T00:16:18;11.63;;;2.65;;
75261;SDS011;63859;51.064;4.580;2023-08-21T00:18:44;6.25;;;2.33;;
75261;SDS011;63859;51.064;4.580;2023-08-21T00:21:10;12.25;;;2.97;;
75261;SDS011;63859;51.064;4.580;2023-08-21T00:23:36;8.57;;;2.72;;
75261;SDS011;63859;51.064;4.580;2023-08-21T00:26:01;7.30;;;2.45;;
75261;SDS011;63859;51.064;4.580;2023-08-21T00:28:27;6.10;;;2.40;;
75261;SDS011;63859;51.064;4.580;2023-08-21T00:31:01;8.00;;;2.80;;
75261;SDS011;63859;51.064;4.580;2023-08-21T00:33:28;6.68;;;2.28;;
75261;SDS011;63859;51.064;4.580;2023-08-21T00:35:55;8.88;;;2.33;;
75261;SDS011;63859;51.064;4.580;2023-08-21T00:38:21;8.98;;;2.25;;
75261;SDS011;63859;51.064;4.580;2023-08-21T00:40:46;7.85;;;2.83;;
75261;SDS011;63859;51.064;4.580;2023-08-21T00:43:12;6.63;;;2.20;;
75261;SDS011;63859;51.064;4.580;2023-08-21T00:45:38;12.88;;;2.97;;
75261;SDS011;63859;51.064;4.580;2023-08-21T00:48:07;10.95;;;2.50;;
75261;SDS011;63859;51.064;4.580;2023-08-21T00:50:34;10.32;;;2.80;;
75261;SDS011;63859;51.064;4.580;2023-08-21T00:53:00;6.93;;;2.15;;
75261;SDS011;63859;51.064;4.580;2023-08-21T00:55:28;10.98;;;2.70;;
75261;SDS011;63859;51.064;4.580;2023-08-21T00:57:54;8.43;;;2.80;;
75261;SDS011;63859;51.064;4.580;2023-08-21T01:00:20;7.78;;;2.40;;
75261;SDS011;63859;51.064;4.580;2023-08-21T01:02:47;7.70;;;2.55;;
75261;SDS011;63859;51.064;4.580;2023-08-21T01:05:13;9.40;;;2.35;;
75261;SDS011;63859;51.064;4.580;2023-08-21T01:07:43;8.38;;;2.95;;
75261;SDS011;63859;51.064;4.580;2023-08-21T01:13:33;9.38;;;2.58;;
75261;SDS011;63859;51.064;4.580;2023-08-21T01:16:00;7.55;;;2.22;;
75261;SDS011;63859;51.064;4.580;2023-08-21T01:18:28;6.53;;;2.40;;
75261;SDS011;63859;51.064;4.580;2023-08-21T01:20:55;8.07;;;2.50;;
75261;SDS011;63859;51.064;4.580;2023-08-21T01:23:32;11.23;;;2.60;;
75261;SDS011;63859;51.064;4.580;2023-08-21T01:26:02;6.20;;;2.25;;
75261;SDS011;63859;51.064;4.580;2023-08-21T01:28:29;8.77;;;2.70;;
75261;SDS011;63859;51.064;4.580;2023-08-21T01:31:07;8.23;;;2.42;;
75261;SDS011;63859;51.064;4.580;2023-08-21T01:33:45;7.18;;;2.78;;
75261;SDS011;63859;51.064;4.580;2023-08-21T01:36:12;7.57;;;2.72;;
75261;SDS011;63859;51.064;4.580;2023-08-21T01:38:39;9.68;;;2.60;;
75261;SDS011;63859;51.064;4.580;2023-08-21T01:41:06;10.18;;;3.03;;
75261;SDS011;63859;51.064;4.580;2023-08-21T01:43:32;6.18;;;2.72;;
75261;SDS011;63859;51.064;4.580;2023-08-21T01:45:57;8.75;;;2.53;;
75261;SDS011;63859;51.064;4.580;2023-08-21T01:48:23;8.02;;;2.35;;
75261;SDS011;63859;51.064;4.580;2023-08-21T01:50:49;11.00;;;2.72;;
75261;SDS011;63859;51.064;4.580;2023-08-21T01:53:14;7.80;;;2.35;;
75261;SDS011;63859;51.064;4.580;2023-08-21T01:55:40;6.57;;;2.05;;
75261;SDS011;63859;51.064;4.580;2023-08-21T01:58:06;10.35;;;2.75;;
75261;SDS011;63859;51.064;4.580;2023-08-21T02:00:31;11.27;;;3.00;;
75261;SDS011;63859;51.064;4.580;2023-08-21T02:02:57;7.05;;;2.80;;
75261;SDS011;63859;51.064;4.580;2023-08-21T02:05:23;9.20;;;2.50;;
75261;SDS011;63859;51.064;4.580;2023-08-21T02:07:48;10.23;;;2.88;;
75261;SDS011;63859;51.064;4.580;2023-08-21T02:10:14;9.75;;;2.92;;
75261;SDS011;63859;51.064;4.580;2023-08-21T02:12:40;11.57;;;3.28;;
75261;SDS011;63859;51.064;4.580;2023-08-21T02:15:05;15.80;;;3.35;;
75261;SDS011;63859;51.064;4.580;2023-08-21T02:17:31;7.10;;;3.13;;
75261;SDS011;63859;51.064;4.580;2023-08-21T02:19:57;10.65;;;2.88;;
75261;SDS011;63859;51.064;4.580;2023-08-21T02:22:23;7.68;;;2.42;;
75261;SDS011;63859;51.064;4.580;2023-08-21T02:24:48;9.20;;;2.85;;
75261;SDS011;63859;51.064;4.580;2023-08-21T02:27:14;9.43;;;2.72;;
75261;SDS011;63859;51.064;4.580;2023-08-21T02:29:40;10.38;;;2.70;;
75261;SDS011;63859;51.064;4.580;2023-08-21T02:32:05;7.28;;;2.80;;
75261;SDS011;63859;51.064;4.580;2023-08-21T02:34:31;13.13;;;3.00;;
75261;SDS011;63859;51.064;4.580;2023-08-21T02:36:57;8.20;;;3.10;;
75261;SDS011;63859;51.064;4.580;2023-08-21T02:39:23;9.48;;;2.67;;
75261;SDS011;63859;51.064;4.580;2023-08-21T02:41:49;10.98;;;2.90;;
75261;SDS011;63859;51.064;4.580;2023-08-21T02:44:15;5.85;;;2.17;;
75261;SDS011;63859;51.064;4.580;2023-08-21T02:46:40;8.73;;;2.97;;
75261;SDS011;63859;51.064;4.580;2023-08-21T02:49:06;8.25;;;2.85;;
75261;SDS011;63859;51.064;4.580;2023-08-21T02:51:31;9.65;;;3.10;;
75261;SDS011;63859;51.064;4.580;2023-08-21T02:53:57;8.88;;;3.05;;
75261;SDS011;63859;51.064;4.580;2023-08-21T02:56:23;9.45;;;3.10;;
75261;SDS011;63859;51.064;4.580;2023-08-21T02:58:48;9.48;;;2.78;;
75261;SDS011;63859;51.064;4.580;2023-08-21T03:01:14;12.40;;;2.67;;
75261;SDS011;63859;51.064;4.580;2023-08-21T03:03:40;10.88;;;2.50;;
75261;SDS011;63859;51.064;4.580;2023-08-21T03:06:05;8.05;;;2.47;;
75261;SDS011;63859;51.064;4.580;2023-08-21T03:08:31;8.18;;;2.80;;
75261;SDS011;63859;51.064;4.580;2023-08-21T03:10:57;5.65;;;2.63;;
75261;SDS011;63859;51.064;4.580;2023-08-21T03:13:22;6.28;;;2.30;;
75261;SDS011;63859;51.064;4.580;2023-08-21T03:15:48;10.65;;;2.90;;
75261;SDS011;63859;51.064;4.580;2023-08-21T03:18:13;6.65;;;2.47;;
75261;SDS011;63859;51.064;4.580;2023-08-21T03:20:44;11.52;;;2.80;;
75261;SDS011;63859;51.064;4.580;2023-08-21T03:23:12;8.98;;;2.75;;
75261;SDS011;63859;51.064;4.580;2023-08-21T03:25:39;10.68;;;2.83;;
75261;SDS011;63859;51.064;4.580;2023-08-21T03:28:05;6.38;;;2.65;;
75261;SDS011;63859;51.064;4.580;2023-08-21T03:30:30;11.98;;;3.10;;
75261;SDS011;63859;51.064;4.580;2023-08-21T03:32:56;7.22;;;2.95;;
75261;SDS011;63859;51.064;4.580;2023-08-21T03:35:22;8.45;;;2.80;;
75261;SDS011;63859;51.064;4.580;2023-08-21T03:37:47;9.88;;;2.78;;
75261;SDS011;63859;51.064;4.580;2023-08-21T03:40:13;8.60;;;2.95;;
75261;SDS011;63859;51.064;4.580;2023-08-21T03:42:39;9.60;;;3.40;;
75261;SDS011;63859;51.064;4.580;2023-08-21T03:45:04;12.68;;;3.22;;
75261;SDS011;63859;51.064;4.580;2023-08-21T03:47:31;13.80;;;3.47;;
75261;SDS011;63859;51.064;4.580;2023-08-21T03:49:56;9.48;;;3.72;;
75261;SDS011;63859;51.064;4.580;2023-08-21T03:52:22;10.23;;;3.20;;
75261;SDS011;63859;51.064;4.580;2023-08-21T03:54:47;13.68;;;3.67;;
75261;SDS011;63859;51.064;4.580;2023-08-21T03:57:13;13.43;;;3.47;;
75261;SDS011;63859;51.064;4.580;2023-08-21T03:59:39;10.35;;;3.15;;
75261;SDS011;63859;51.064;4.580;2023-08-21T04:02:04;11.38;;;3.42;;
75261;SDS011;63859;51.064;4.580;2023-08-21T04:04:30;10.98;;;3.70;;
75261;SDS011;63859;51.064;4.580;2023-08-21T04:06:56;10.43;;;3.38;;
75261;SDS011;63859;51.064;4.580;2023-08-21T04:09:21;13.25;;;3.70;;
75261;SDS011;63859;51.064;4.580;2023-08-21T04:11:47;13.32;;;3.53;;
75261;SDS011;63859;51.064;4.580;2023-08-21T04:14:13;10.27;;;3.17;;
75261;SDS011;63859;51.064;4.580;2023-08-21T04:16:38;15.63;;;3.75;;
75261;SDS011;63859;51.064;4.580;2023-08-21T04:19:05;24.55;;;4.22;;
75261;SDS011;63859;51.064;4.580;2023-08-21T04:21:30;10.85;;;3.53;;
75261;SDS011;63859;51.064;4.580;2023-08-21T04:23:56;15.25;;;3.60;;
75261;SDS011;63859;51.064;4.580;2023-08-21T04:26:22;13.02;;;3.47;;
75261;SDS011;63859;51.064;4.580;2023-08-21T04:28:47;9.35;;;3.47;;
75261;SDS011;63859;51.064;4.580;2023-08-21T04:31:13;12.80;;;2.97;;
75261;SDS011;63859;51.064;4.580;2023-08-21T04:33:39;11.23;;;3.25;;
75261;SDS011;63859;51.064;4.580;2023-08-21T04:36:04;10.10;;;3.15;;
75261;SDS011;63859;51.064;4.580;2023-08-21T04:38:30;11.73;;;3.63;;
75261;SDS011;63859;51.064;4.580;2023-08-21T04:40:56;11.88;;;3.20;;
75261;SDS011;63859;51.064;4.580;2023-08-21T04:43:30;9.07;;;3.50;;
75261;SDS011;63859;51.064;4.580;2023-08-21T04:45:56;10.73;;;3.22;;
75261;SDS011;63859;51.064;4.580;2023-08-21T04:48:21;8.77;;;3.40;;
75261;SDS011;63859;51.064;4.580;2023-08-21T04:50:47;14.07;;;3.95;;
75261;SDS011;63859;51.064;4.580;2023-08-21T04:53:13;15.65;;;3.97;;
75261;SDS011;63859;51.064;4.580;2023-08-21T04:55:41;9.93;;;3.45;;
75261;SDS011;63859;51.064;4.580;2023-08-21T04:58:07;14.02;;;3.88;;
75261;SDS011;63859;51.064;4.580;2023-08-21T05:00:34;10.25;;;3.70;;
75261;SDS011;63859;51.064;4.580;2023-08-21T05:02:59;12.73;;;3.85;;
75261;SDS011;63859;51.064;4.580;2023-08-21T05:05:25;13.80;;;3.58;;
75261;SDS011;63859;51.064;4.580;2023-08-21T05:07:54;8.43;;;3.70;;
75261;SDS011;63859;51.064;4.580;2023-08-21T05:10:19;11.65;;;3.63;;
75261;SDS011;63859;51.064;4.580;2023-08-21T05:12:45;14.73;;;4.20;;
75261;SDS011;63859;51.064;4.580;2023-08-21T05:15:11;11.27;;;4.13;;
75261;SDS011;63859;51.064;4.580;2023-08-21T05:17:37;10.65;;;3.50;;
75261;SDS011;63859;51.064;4.580;2023-08-21T05:20:03;13.13;;;4.13;;
75261;SDS011;63859;51.064;4.580;2023-08-21T05:22:29;14.38;;;3.63;;
75261;SDS011;63859;51.064;4.580;2023-08-21T05:24:55;9.38;;;3.95;;
75261;SDS011;63859;51.064;4.580;2023-08-21T05:27:21;12.18;;;3.50;;
75261;SDS011;63859;51.064;4.580;2023-08-21T05:29:46;10.82;;;3.30;;
75261;SDS011;63859;51.064;4.580;2023-08-21T05:32:14;11.00;;;3.70;;
75261;SDS011;63859;51.064;4.580;2023-08-21T05:34:40;10.85;;;3.42;;
75261;SDS011;63859;51.064;4.580;2023-08-21T05:37:05;11.07;;;3.72;;
75261;SDS011;63859;51.064;4.580;2023-08-21T05:39:31;12.93;;;3.78;;
75261;SDS011;63859;51.064;4.580;2023-08-21T05:41:57;14.77;;;4.03;;
75261;SDS011;63859;51.064;4.580;2023-08-21T05:44:23;16.80;;;4.03;;
75261;SDS011;63859;51.064;4.580;2023-08-21T05:46:50;27.92;;;6.45;;
75261;SDS011;63859;51.064;4.580;2023-08-21T05:49:15;11.02;;;3.85;;
75261;SDS011;63859;51.064;4.580;2023-08-21T05:51:41;13.93;;;4.03;;
75261;SDS011;63859;51.064;4.580;2023-08-21T05:54:07;18.90;;;4.15;;
75261;SDS011;63859;51.064;4.580;2023-08-21T05:56:32;15.13;;;4.28;;
75261;SDS011;63859;51.064;4.580;2023-08-21T05:58:58;15.05;;;4.50;;
75261;SDS011;63859;51.064;4.580;2023-08-21T06:01:23;9.15;;;3.60;;
75261;SDS011;63859;51.064;4.580;2023-08-21T06:03:49;14.50;;;4.20;;
75261;SDS011;63859;51.064;4.580;2023-08-21T06:06:15;15.05;;;4.40;;
75261;SDS011;63859;51.064;4.580;2023-08-21T06:08:40;12.93;;;4.20;;
75261;SDS011;63859;51.064;4.580;2023-08-21T06:11:06;11.07;;;3.75;;
75261;SDS011;63859;51.064;4.580;2023-08-21T06:13:32;12.30;;;3.60;;
75261;SDS011;63859;51.064;4.580;2023-08-21T06:15:57;9.10;;;3.63;;
75261;SDS011;63859;51.064;4.580;2023-08-21T06:18:23;32.83;;;5.80;;
75261;SDS011;63859;51.064;4.580;2023-08-21T06:20:49;15.23;;;4.53;;
75261;SDS011;63859;51.064;4.580;2023-08-21T06:23:18;13.50;;;4.20;;
75261;SDS011;63859;51.064;4.580;2023-08-21T06:25:47;15.25;;;4.22;;
75261;SDS011;63859;51.064;4.580;2023-08-21T06:28:13;12.35;;;4.57;;
75261;SDS011;63859;51.064;4.580;2023-08-21T06:30:39;18.75;;;4.47;;
75261;SDS011;63859;51.064;4.580;2023-08-21T06:33:04;15.10;;;4.38;;
75261;SDS011;63859;51.064;4.580;2023-08-21T06:35:30;12.95;;;4.38;;
75261;SDS011;63859;51.064;4.580;2023-08-21T06:37:56;15.77;;;4.93;;
75261;SDS011;63859;51.064;4.580;2023-08-21T06:40:21;8.18;;;4.10;;
75261;SDS011;63859;51.064;4.580;2023-08-21T06:42:47;13.40;;;4.57;;
75261;SDS011;63859;51.064;4.580;2023-08-21T06:45:17;12.52;;;4.28;;
75261;SDS011;63859;51.064;4.580;2023-08-21T06:47:43;16.50;;;4.10;;
75261;SDS011;63859;51.064;4.580;2023-08-21T06:50:09;13.35;;;4.22;;
75261;SDS011;63859;51.064;4.580;2023-08-21T06:52:35;17.13;;;4.70;;
75261;SDS011;63859;51.064;4.580;2023-08-21T06:55:00;20.42;;;4.07;;
75261;SDS011;63859;51.064;4.580;2023-08-21T06:57:27;25.80;;;4.90;;
75261;SDS011;63859;51.064;4.580;2023-08-21T06:59:52;11.65;;;3.90;;
75261;SDS011;63859;51.064;4.580;2023-08-21T07:02:18;12.25;;;3.75;;
75261;SDS011;63859;51.064;4.580;2023-08-21T07:04:44;17.92;;;4.13;;
75261;SDS011;63859;51.064;4.580;2023-08-21T07:07:09;15.90;;;4.60;;
75261;SDS011;63859;51.064;4.580;2023-08-21T07:09:35;15.10;;;4.38;;
75261;SDS011;63859;51.064;4.580;2023-08-21T07:12:01;16.52;;;4.57;;
75261;SDS011;63859;51.064;4.580;2023-08-21T07:14:27;18.92;;;5.35;;
75261;SDS011;63859;51.064;4.580;2023-08-21T07:16:53;13.60;;;5.30;;
75261;SDS011;63859;51.064;4.580;2023-08-21T07:19:19;16.42;;;5.10;;
75261;SDS011;63859;51.064;4.580;2023-08-21T07:21:44;16.88;;;5.78;;
75261;SDS011;63859;51.064;4.580;2023-08-21T07:24:10;15.38;;;5.57;;
75261;SDS011;63859;51.064;4.580;2023-08-21T07:26:36;14.63;;;4.72;;
75261;SDS011;63859;51.064;4.580;2023-08-21T07:29:01;14.95;;;4.30;;
75261;SDS011;63859;51.064;4.580;2023-08-21T07:31:29;13.95;;;4.20;;
75261;SDS011;63859;51.064;4.580;2023-08-21T07:33:55;11.90;;;4.18;;
75261;SDS011;63859;51.064;4.580;2023-08-21T07:36:21;15.25;;;4.63;;
75261;SDS011;63859;51.064;4.580;2023-08-21T07:38:46;16.48;;;4.07;;
75261;SDS011;63859;51.064;4.580;2023-08-21T07:41:12;10.38;;;3.75;;
75261;SDS011;63859;51.064;4.580;2023-08-21T07:43:41;13.88;;;4.10;;
75261;SDS011;63859;51.064;4.580;2023-08-21T07:46:09;10.35;;;4.43;;
75261;SDS011;63859;51.064;4.580;2023-08-21T07:48:41;13.48;;;4.07;;
75261;SDS011;63859;51.064;4.580;2023-08-21T07:51:07;14.38;;;4.68;;
75261;SDS011;63859;51.064;4.580;2023-08-21T07:53:33;15.80;;;4.45;;
75261;SDS011;63859;51.064;4.580;2023-08-21T07:56:00;10.25;;;3.47;;
75261;SDS011;63859;51.064;4.580;2023-08-21T07:58:26;13.05;;;4.00;;
75261;SDS011;63859;51.064;4.580;2023-08-21T08:00:52;13.38;;;4.22;;
75261;SDS011;63859;51.064;4.580;2023-08-21T08:03:17;18.45;;;4.25;;
75261;SDS011;63859;51.064;4.580;2023-08-21T08:05:43;14.05;;;4.47;;
75261;SDS011;63859;51.064;4.580;2023-08-21T08:08:09;10.50;;;3.58;;
75261;SDS011;63859;51.064;4.580;2023-08-21T08:10:38;9.68;;;3.50;;
75261;SDS011;63859;51.064;4.580;2023-08-21T08:13:04;11.55;;;3.33;;
75261;SDS011;63859;51.064;4.580;2023-08-21T08:15:30;11.90;;;3.28;;
75261;SDS011;63859;51.064;4.580;2023-08-21T08:17:56;14.00;;;3.38;;
75261;SDS011;63859;51.064;4.580;2023-08-21T08:20:22;14.85;;;3.35;;
75261;SDS011;63859;51.064;4.580;2023-08-21T08:22:48;12.93;;;3.08;;
75261;SDS011;63859;51.064;4.580;2023-08-21T08:25:14;12.18;;;3.28;;
75261;SDS011;63859;51.064;4.580;2023-08-21T08:27:40;11.20;;;3.38;;
75261;SDS011;63859;51.064;4.580;2023-08-21T08:30:06;14.23;;;3.58;;
75261;SDS011;63859;51.064;4.580;2023-08-21T08:32:32;13.48;;;3.28;;
75261;SDS011;63859;51.064;4.580;2023-08-21T08:34:58;14.40;;;3.65;;
75261;SDS011;63859;51.064;4.580;2023-08-21T08:37:24;17.77;;;3.80;;
75261;SDS011;63859;51.064;4.580;2023-08-21T08:39:49;14.88;;;4.05;;
75261;SDS011;63859;51.064;4.580;2023-08-21T08:42:15;13.95;;;3.70;;
75261;SDS011;63859;51.064;4.580;2023-08-21T08:44:42;15.35;;;3.65;;
75261;SDS011;63859;51.064;4.580;2023-08-21T08:47:11;15.45;;;3.05;;
75261;SDS011;63859;51.064;4.580;2023-08-21T08:49:37;11.40;;;3.40;;
75261;SDS011;63859;51.064;4.580;2023-08-21T08:52:03;14.63;;;3.13;;
75261;SDS011;63859;51.064;4.580;2023-08-21T08:54:30;14.07;;;3.00;;
75261;SDS011;63859;51.064;4.580;2023-08-21T08:56:56;10.60;;;3.00;;
75261;SDS011;63859;51.064;4.580;2023-08-21T08:59:22;8.45;;;2.80;;
75261;SDS011;63859;51.064;4.580;2023-08-21T09:01:48;13.95;;;2.88;;
75261;SDS011;63859;51.064;4.580;2023-08-21T09:04:13;12.57;;;2.50;;
75261;SDS011;63859;51.064;4.580;2023-08-21T09:06:39;10.85;;;2.30;;
75261;SDS011;63859;51.064;4.580;2023-08-21T09:09:06;8.18;;;1.85;;
75261;SDS011;63859;51.064;4.580;2023-08-21T09:11:32;9.55;;;2.58;;
75261;SDS011;63859;51.064;4.580;2023-08-21T09:13:58;11.38;;;2.38;;
75261;SDS011;63859;51.064;4.580;2023-08-21T09:16:25;9.55;;;2.13;;
75261;SDS011;63859;51.064;4.580;2023-08-21T09:18:55;18.42;;;2.75;;
75261;SDS011;63859;51.064;4.580;2023-08-21T09:21:22;9.20;;;2.70;;
75261;SDS011;63859;51.064;4.580;2023-08-21T09:23:51;14.43;;;2.63;;
75261;SDS011;63859;51.064;4.580;2023-08-21T09:26:25;7.50;;;2.67;;
75261;SDS011;63859;51.064;4.580;2023-08-21T09:28:51;9.55;;;2.80;;
75261;SDS011;63859;51.064;4.580;2023-08-21T09:31:29;10.88;;;2.22;;
75261;SDS011;63859;51.064;4.580;2023-08-21T09:33:56;12.30;;;2.70;;
75261;SDS011;63859;51.064;4.580;2023-08-21T09:36:26;7.20;;;2.10;;
75261;SDS011;63859;51.064;4.580;2023-08-21T09:38:52;10.00;;;2.20;;
75261;SDS011;63859;51.064;4.580;2023-08-21T09:41:21;12.10;;;2.55;;
75261;SDS011;63859;51.064;4.580;2023-08-21T09:43:48;6.57;;;1.90;;
75261;SDS011;63859;51.064;4.580;2023-08-21T09:46:14;7.85;;;2.10;;
75261;SDS011;63859;51.064;4.580;2023-08-21T09:48:44;10.20;;;2.35;;
75261;SDS011;63859;51.064;4.580;2023-08-21T09:51:12;14.60;;;2.63;;
75261;SDS011;63859;51.064;4.580;2023-08-21T09:53:38;11.98;;;2.30;;
75261;SDS011;63859;51.064;4.580;2023-08-21T09:56:05;6.70;;;2.08;;
75261;SDS011;63859;51.064;4.580;2023-08-21T09:58:32;9.55;;;2.45;;
75261;SDS011;63859;51.064;4.580;2023-08-21T10:00:58;10.70;;;2.47;;
75261;SDS011;63859;51.064;4.580;2023-08-21T10:03:25;8.27;;;2.20;;
75261;SDS011;63859;51.064;4.580;2023-08-21T10:05:51;8.02;;;2.28;;
75261;SDS011;63859;51.064;4.580;2023-08-21T10:08:21;11.65;;;2.47;;
75261;SDS011;63859;51.064;4.580;2023-08-21T10:10:50;8.93;;;2.30;;
75261;SDS011;63859;51.064;4.580;2023-08-21T10:13:16;10.57;;;2.53;;
75261;SDS011;63859;51.064;4.580;2023-08-21T10:15:42;5.82;;;2.05;;
75261;SDS011;63859;51.064;4.580;2023-08-21T10:18:22;17.88;;;2.85;;
75261;SDS011;63859;51.064;4.580;2023-08-21T10:20:48;9.43;;;1.90;;
75261;SDS011;63859;51.064;4.580;2023-08-21T10:23:24;8.80;;;1.90;;
75261;SDS011;63859;51.064;4.580;2023-08-21T10:25:55;6.97;;;1.60;;
75261;SDS011;63859;51.064;4.580;2023-08-21T10:28:24;5.28;;;1.70;;
75261;SDS011;63859;51.064;4.580;2023-08-21T10:30:50;10.85;;;2.60;;
75261;SDS011;63859;51.064;4.580;2023-08-21T10:33:16;12.52;;;2.20;;
75261;SDS011;63859;51.064;4.580;2023-08-21T10:35:44;5.25;;;2.00;;
75261;SDS011;63859;51.064;4.580;2023-08-21T10:43:43;4.80;;;1.73;;
75261;SDS011;63859;51.064;4.580;2023-08-21T10:46:10;6.65;;;1.45;;
75261;SDS011;63859;51.064;4.580;2023-08-21T10:48:36;6.00;;;1.30;;
75261;SDS011;63859;51.064;4.580;2023-08-21T10:51:04;5.97;;;1.58;;
75261;SDS011;63859;51.064;4.580;2023-08-21T10:53:31;5.13;;;1.25;;
75261;SDS011;63859;51.064;4.580;2023-08-21T10:56:00;7.07;;;1.50;;
75261;SDS011;63859;51.064;4.580;2023-08-21T10:58:28;4.97;;;1.27;;
75261;SDS011;63859;51.064;4.580;2023-08-21T11:00:59;4.38;;;1.20;;
75261;SDS011;63859;51.064;4.580;2023-08-21T11:03:25;3.13;;;1.02;;
75261;SDS011;63859;51.064;4.580;2023-08-21T11:06:04;4.35;;;0.90;;
75261;SDS011;63859;51.064;4.580;2023-08-21T11:08:34;3.20;;;1.20;;
75261;SDS011;63859;51.064;4.580;2023-08-21T11:11:02;4.05;;;1.20;;
75261;SDS011;63859;51.064;4.580;2023-08-21T11:13:29;3.65;;;1.20;;
75261;SDS011;63859;51.064;4.580;2023-08-21T11:16:01;4.18;;;1.10;;
75261;SDS011;63859;51.064;4.580;2023-08-21T11:18:29;3.83;;;1.30;;
75261;SDS011;63859;51.064;4.580;2023-08-21T11:21:03;3.63;;;1.40;;
75261;SDS011;63859;51.064;4.580;2023-08-21T11:23:33;7.13;;;1.95;;
75261;SDS011;63859;51.064;4.580;2023-08-21T11:26:03;5.45;;;1.58;;
75261;SDS011;63859;51.064;4.580;2023-08-21T11:28:29;3.75;;;1.45;;
75261;SDS011;63859;51.064;4.580;2023-08-21T11:30:56;4.40;;;1.85;;
75261;SDS011;63859;51.064;4.580;2023-08-21T11:33:23;3.67;;;1.30;;
75261;SDS011;63859;51.064;4.580;2023-08-21T11:35:50;6.72;;;1.50;;
75261;SDS011;63859;51.064;4.580;2023-08-21T11:38:21;6.00;;;1.58;;
75261;SDS011;63859;51.064;4.580;2023-08-21T11:41:06;5.15;;;1.73;;
75261;SDS011;63859;51.064;4.580;2023-08-21T11:43:39;5.53;;;1.67;;
75261;SDS011;63859;51.064;4.580;2023-08-21T11:46:09;8.63;;;2.00;;
75261;SDS011;63859;51.064;4.580;2023-08-21T11:48:38;10.35;;;1.88;;
75261;SDS011;63859;51.064;4.580;2023-08-21T11:51:06;5.18;;;1.95;;
75261;SDS011;63859;51.064;4.580;2023-08-21T11:53:36;5.45;;;1.70;;
75261;SDS011;63859;51.064;4.580;2023-08-21T11:56:09;9.18;;;1.70;;
75261;SDS011;63859;51.064;4.580;2023-08-21T11:58:39;5.70;;;1.40;;
75261;SDS011;63859;51.064;4.580;2023-08-21T12:01:06;3.92;;;1.48;;
75261;SDS011;63859;51.064;4.580;2023-08-21T12:03:35;3.80;;;1.77;;
75261;SDS011;63859;51.064;4.580;2023-08-21T12:06:09;6.68;;;1.90;;
75261;SDS011;63859;51.064;4.580;2023-08-21T12:08:37;8.90;;;1.92;;
75261;SDS011;63859;51.064;4.580;2023-08-21T12:11:03;5.97;;;2.10;;
75261;SDS011;63859;51.064;4.580;2023-08-21T12:13:30;8.20;;;2.20;;
75261;SDS011;63859;51.064;4.580;2023-08-21T12:15:55;6.45;;;2.17;;
75261;SDS011;63859;51.064;4.580;2023-08-21T12:18:21;8.75;;;2.40;;
75261;SDS011;63859;51.064;4.580;2023-08-21T12:20:47;9.70;;;2.40;;
75261;SDS011;63859;51.064;4.580;2023-08-21T12:23:12;5.32;;;2.30;;
75261;SDS011;63859;51.064;4.580;2023-08-21T12:25:38;7.28;;;2.03;;
75261;SDS011;63859;51.064;4.580;2023-08-21T12:28:04;10.15;;;2.30;;
75261;SDS011;63859;51.064;4.580;2023-08-21T12:30:30;7.97;;;2.13;;
75261;SDS011;63859;51.064;4.580;2023-08-21T12:32:56;5.10;;;1.90;;
75261;SDS011;63859;51.064;4.580;2023-08-21T12:35:22;5.53;;;1.92;;
75261;SDS011;63859;51.064;4.580;2023-08-21T12:37:48;5.75;;;1.88;;
75261;SDS011;63859;51.064;4.580;2023-08-21T12:40:14;7.43;;;2.15;;
75261;SDS011;63859;51.064;4.580;2023-08-21T12:42:39;9.70;;;2.20;;
75261;SDS011;63859;51.064;4.580;2023-08-21T12:45:05;6.15;;;2.25;;
75261;SDS011;63859;51.064;4.580;2023-08-21T12:47:31;6.20;;;2.30;;
75261;SDS011;63859;51.064;4.580;2023-08-21T12:49:58;5.45;;;2.28;;
75261;SDS011;63859;51.064;4.580;2023-08-21T12:52:23;10.73;;;2.15;;
75261;SDS011;63859;51.064;4.580;2023-08-21T12:54:49;6.97;;;1.92;;
75261;SDS011;63859;51.064;4.580;2023-08-21T12:57:15;3.22;;;1.85;;
75261;SDS011;63859;51.064;4.580;2023-08-21T12:59:42;5.10;;;2.10;;
75261;SDS011;63859;51.064;4.580;2023-08-21T13:02:07;7.85;;;2.40;;
75261;SDS011;63859;51.064;4.580;2023-08-21T13:04:33;6.53;;;2.20;;
75261;SDS011;63859;51.064;4.580;2023-08-21T13:06:59;7.38;;;1.98;;
75261;SDS011;63859;51.064;4.580;2023-08-21T13:09:25;5.25;;;2.10;;
75261;SDS011;63859;51.064;4.580;2023-08-21T13:11:51;5.13;;;2.30;;
75261;SDS011;63859;51.064;4.580;2023-08-21T13:14:19;4.38;;;2.10;;
75261;SDS011;63859;51.064;4.580;2023-08-21T13:16:44;4.65;;;2.05;;
75261;SDS011;63859;51.064;4.580;2023-08-21T13:19:10;4.15;;;1.65;;
75261;SDS011;63859;51.064;4.580;2023-08-21T13:21:36;6.72;;;2.10;;
75261;SDS011;63859;51.064;4.580;2023-08-21T13:24:02;9.75;;;1.75;;
75261;SDS011;63859;51.064;4.580;2023-08-21T13:26:28;6.22;;;1.67;;
75261;SDS011;63859;51.064;4.580;2023-08-21T13:28:54;6.47;;;2.05;;
75261;SDS011;63859;51.064;4.580;2023-08-21T13:31:20;5.25;;;1.80;;
75261;SDS011;63859;51.064;4.580;2023-08-21T13:33:46;3.90;;;1.50;;
75261;SDS011;63859;51.064;4.580;2023-08-21T13:36:14;3.25;;;1.52;;
75261;SDS011;63859;51.064;4.580;2023-08-21T13:38:41;3.72;;;1.67;;
75261;SDS011;63859;51.064;4.580;2023-08-21T13:41:07;4.22;;;1.90;;
75261;SDS011;63859;51.064;4.580;2023-08-21T13:43:34;6.45;;;1.90;;
75261;SDS011;63859;51.064;4.580;2023-08-21T13:46:01;6.22;;;1.85;;
75261;SDS011;63859;51.064;4.580;2023-08-21T13:48:29;6.10;;;1.30;;
75261;SDS011;63859;51.064;4.580;2023-08-21T13:50:55;6.13;;;1.70;;
75261;SDS011;63859;51.064;4.580;2023-08-21T13:53:21;7.75;;;1.65;;
75261;SDS011;63859;51.064;4.580;2023-08-21T13:55:47;8.10;;;1.70;;
75261;SDS011;63859;51.064;4.580;2023-08-21T13:58:12;5.97;;;2.10;;
75261;SDS011;63859;51.064;4.580;2023-08-21T14:00:38;7.57;;;1.50;;
75261;SDS011;63859;51.064;4.580;2023-08-21T14:03:04;5.55;;;1.50;;
75261;SDS011;63859;51.064;4.580;2023-08-21T14:05:30;5.50;;;1.42;;
75261;SDS011;63859;51.064;4.580;2023-08-21T14:07:56;7.85;;;1.50;;
75261;SDS011;63859;51.064;4.580;2023-08-21T14:10:22;5.57;;;1.67;;
75261;SDS011;63859;51.064;4.580;2023-08-21T14:12:48;5.35;;;1.40;;
75261;SDS011;63859;51.064;4.580;2023-08-21T14:15:14;4.70;;;1.45;;
75261;SDS011;63859;51.064;4.580;2023-08-21T14:17:40;3.67;;;1.38;;
75261;SDS011;63859;51.064;4.580;2023-08-21T14:20:06;4.63;;;1.35;;
75261;SDS011;63859;51.064;4.580;2023-08-21T14:22:32;4.82;;;1.33;;
75261;SDS011;63859;51.064;4.580;2023-08-21T14:24:58;7.18;;;1.75;;
75261;SDS011;63859;51.064;4.580;2023-08-21T14:27:24;2.47;;;1.13;;
75261;SDS011;63859;51.064;4.580;2023-08-21T14:29:50;5.43;;;1.30;;
75261;SDS011;63859;51.064;4.580;2023-08-21T14:32:16;6.32;;;1.40;;
75261;SDS011;63859;51.064;4.580;2023-08-21T14:34:41;4.68;;;1.42;;
75261;SDS011;63859;51.064;4.580;2023-08-21T14:37:07;2.45;;;1.13;;
75261;SDS011;63859;51.064;4.580;2023-08-21T14:39:33;3.40;;;1.10;;
75261;SDS011;63859;51.064;4.580;2023-08-21T14:41:59;2.95;;;1.10;;
75261;SDS011;63859;51.064;4.580;2023-08-21T14:44:26;5.75;;;1.20;;
75261;SDS011;63859;51.064;4.580;2023-08-21T14:46:52;11.30;;;2.10;;